Information Last Ob Photographs Calibration Meteogram Network Table Neighbors Monthly Summaries Observation History Wind Roses Custom Wind Roses Data Calendar Satellite Cloud Product Download

Most Recent Observation

This application displays the last observation received by the IEM from this site. The time stamp is in America/Chicago timezone.

Observation Local Time23 Feb 2024, 4:55 PM
Observation UTC Time2024-02-23T22:55:00Z
Air Temp [F]49
Maximum Air Temperature [F]54.5
Minimum Air Temperature [F]26.2
Dew Point [F]26.8
Wind DirectionNNW (330 degrees)
Wind Speed [knots]20
Altimeter [inches]29.86
Raw Observation/ProductKPRO 232255Z AUTO 33020G26KT 10SM CLR 10/M03 A2986 RMK AO2 T00951029
Cloud Layer 1: CLR ( feet)

This data was provided by a JSON(P) webservice. You can find more JSON services.